createdAt,value
2023-01-03T00:01:20.787Z,38.50
2023-01-03T00:03:48.219Z,40.85
2023-01-03T00:06:22.014Z,38.33
2023-01-03T00:08:49.817Z,45.67
2023-01-03T00:11:44.129Z,47.88
2023-01-03T00:14:18.899Z,51.25
2023-01-03T00:16:46.599Z,61.55
2023-01-03T00:19:15.326Z,49.55
2023-01-03T00:21:45.529Z,47.33
2023-01-03T00:24:13.165Z,48.42
2023-01-03T00:26:42.113Z,55.17
2023-01-03T00:29:09.983Z,43.78
2023-01-03T00:31:37.645Z,48.60
2023-01-03T00:34:05.276Z,50.97
2023-01-03T00:36:32.944Z,49.65
2023-01-03T00:39:00.008Z,61.75
2023-01-03T00:41:27.150Z,52.17
2023-01-03T00:43:54.164Z,50.13
2023-01-03T00:46:22.127Z,50.50
2023-01-03T00:48:49.444Z,67.15
2023-01-03T00:51:25.528Z,50.42
2023-01-03T00:53:56.156Z,62.72
2023-01-03T00:56:27.339Z,57.72
2023-01-03T00:58:54.996Z,63.47
2023-01-03T01:01:32.822Z,63.88
2023-01-03T01:04:16.930Z,50.25
2023-01-03T01:06:47.542Z,54.58
2023-01-03T01:09:17.927Z,64.97
2023-01-03T01:11:45.047Z,55.92
2023-01-03T01:14:26.792Z,61.70
2023-01-03T01:17:03.629Z,62.17
2023-01-03T01:19:38.978Z,62.05
2023-01-03T01:22:08.424Z,65.07
2023-01-03T01:24:36.224Z,63.92
2023-01-03T01:27:03.458Z,62.30
2023-01-03T01:29:30.500Z,53.88
2023-01-03T01:31:57.836Z,56.95
2023-01-03T01:34:24.831Z,59.95
2023-01-03T01:36:52.144Z,62.97
2023-01-03T01:39:26.177Z,77.28
2023-01-03T01:42:20.743Z,60.13
2023-01-03T01:44:56.260Z,57.78
2023-01-03T01:47:53.458Z,66.03
2023-01-03T01:50:39.679Z,51.92
2023-01-03T01:53:10.339Z,62.20
2023-01-03T01:56:08.489Z,52.13
2023-01-03T01:58:39.308Z,61.58
2023-01-03T02:04:01.475Z,54.50
2023-01-03T02:06:31.858Z,63.08
2023-01-03T02:08:58.970Z,59.50
2023-01-03T02:11:25.874Z,51.90
2023-01-03T02:14:26.734Z,58.08
2023-01-03T02:17:02.408Z,58.75
2023-01-03T02:20:06.874Z,56.63
2023-01-03T02:22:51.478Z,64.65
2023-01-03T02:26:13.376Z,60.83
2023-01-03T02:29:14.586Z,58.03
2023-01-03T02:31:56.526Z,56.88
2023-01-03T02:37:07.805Z,53.70
2023-01-03T02:39:58.896Z,53.28
2023-01-03T02:42:57.946Z,57.57
2023-01-03T02:45:39.825Z,51.63
2023-01-03T02:51:19.640Z,54.22
2023-01-03T02:53:49.762Z,57.30
2023-01-03T02:57:06.543Z,49.88
2023-01-03T02:59:56.235Z,50.75
2023-01-03T03:02:29.025Z,52.60
2023-01-03T03:04:57.445Z,49.92
2023-01-03T03:07:33.124Z,57.30
2023-01-03T03:10:19.046Z,51.08
2023-01-03T03:13:07.967Z,55.53
2023-01-03T03:15:44.274Z,50.30
2023-01-03T03:18:20.958Z,54.30
2023-01-03T03:21:06.784Z,59.58
2023-01-03T03:23:55.825Z,52.42
2023-01-03T03:26:31.651Z,58.90
2023-01-03T03:29:05.059Z,56.00
2023-01-03T03:31:43.289Z,51.22
2023-01-03T03:34:25.316Z,46.40
2023-01-03T03:39:43.694Z,62.67
2023-01-03T03:42:43.674Z,72.10
2023-01-03T03:45:35.665Z,51.20
2023-01-03T03:51:04.323Z,53.00
2023-01-03T03:53:35.077Z,47.80
2023-01-03T03:56:10.009Z,47.90
2023-01-03T03:58:43.408Z,48.17
2023-01-03T04:01:14.508Z,60.13
2023-01-03T04:03:43.283Z,54.22
2023-01-03T04:06:50.970Z,51.13
2023-01-03T04:09:18.370Z,46.75
2023-01-03T04:11:45.453Z,54.08
2023-01-03T04:14:12.649Z,55.40
2023-01-03T04:16:41.130Z,51.65
2023-01-03T04:19:08.968Z,56.05
2023-01-03T04:21:36.871Z,59.65
2023-01-03T04:24:07.819Z,55.80
2023-01-03T04:26:34.819Z,57.95
2023-01-03T04:29:01.987Z,51.25
2023-01-03T04:31:29.040Z,60.80
2023-01-03T04:33:56.073Z,59.67
2023-01-03T04:36:23.145Z,56.75
2023-01-03T04:38:50.465Z,61.20
2023-01-03T04:41:17.450Z,61.97
2023-01-03T04:44:02.832Z,61.33
2023-01-03T06:02:11.574Z,137.38
2023-01-03T06:04:38.713Z,267.73
2023-01-03T06:29:32.517Z,330.55
2023-01-03T06:32:05.111Z,154.63
2023-01-03T06:34:35.711Z,324.38
2023-01-03T06:37:02.753Z,178.10
2023-01-03T06:39:29.835Z,164.55
2023-01-03T06:41:56.838Z,213.65
2023-01-03T06:44:23.891Z,249.13
2023-01-03T09:57:28.753Z,73.25
2023-01-03T10:00:14.955Z,65.53
2023-01-03T10:03:51.672Z,70.88
2023-01-03T10:21:01.964Z,73.03
2023-01-03T10:23:30.055Z,80.25
2023-01-03T10:31:00.745Z,82.75
2023-01-03T10:33:34.629Z,91.13
2023-01-03T10:36:02.370Z,75.75
2023-01-03T10:38:30.278Z,92.00
2023-01-03T10:41:02.923Z,92.97
2023-01-03T10:43:45.415Z,84.00
2023-01-03T10:46:25.585Z,85.47
2023-01-03T10:49:26.470Z,83.20
2023-01-03T10:54:31.291Z,102.45
2023-01-03T10:56:58.650Z,96.97
2023-01-03T10:59:28.648Z,94.72
2023-01-03T11:02:09.603Z,104.68
2023-01-03T11:04:37.902Z,104.63
2023-01-03T11:25:49.982Z,98.07
2023-01-03T11:29:07.581Z,93.30
2023-01-03T11:32:08.701Z,108.13
2023-01-03T11:38:27.674Z,93.18
2023-01-03T11:41:14.664Z,91.55
2023-01-03T11:44:15.530Z,106.57
2023-01-03T11:47:11.948Z,90.38
2023-01-03T11:50:01.813Z,95.60
2023-01-03T11:52:39.505Z,88.10
2023-01-03T11:55:17.590Z,90.13
2023-01-03T11:58:34.782Z,103.15
2023-01-03T12:01:07.933Z,82.55
2023-01-03T12:04:15.729Z,87.85
2023-01-03T12:07:45.924Z,91.85
2023-01-03T12:21:43.897Z,97.85
2023-01-03T12:24:40.818Z,94.43
2023-01-03T12:27:36.844Z,102.05
2023-01-03T12:30:26.233Z,97.20
2023-01-03T12:33:04.497Z,88.97
2023-01-03T12:35:46.968Z,86.43
2023-01-03T12:38:13.998Z,86.28
2023-01-03T12:40:55.298Z,110.65
2023-01-03T12:43:39.195Z,92.70
2023-01-03T12:46:18.901Z,79.07
2023-01-03T12:49:12.313Z,83.80
2023-01-03T12:51:39.309Z,79.72
2023-01-03T12:54:31.543Z,78.57
2023-01-03T12:57:16.741Z,81.15
2023-01-03T13:00:20.909Z,76.93
2023-01-03T13:15:54.112Z,72.75
2023-01-03T13:18:21.406Z,97.00
2023-01-03T13:20:55.749Z,71.88
2023-01-03T13:23:59.084Z,82.30
2023-01-03T13:26:28.327Z,82.22
2023-01-03T13:29:35.886Z,82.90
2023-01-03T13:32:17.792Z,67.57
2023-01-03T13:37:18.052Z,74.97
2023-01-03T13:39:49.947Z,87.82
2023-01-03T14:00:29.784Z,63.58
2023-01-03T20:01:16.277Z,29.38
2023-01-03T21:16:34.919Z,28.02
2023-01-03T21:19:23.566Z,24.52
2023-01-03T21:21:55.105Z,25.33
2023-01-03T21:24:23.714Z,25.90
2023-01-03T21:26:53.624Z,28.65
2023-01-03T21:29:22.128Z,26.20
